createdAt,value
2023-02-19T00:00:50.390Z,14.09
2023-02-19T00:06:15.084Z,13.86
2023-02-19T00:11:22.859Z,13.02
2023-02-19T00:16:27.812Z,12.93
2023-02-19T00:21:33.084Z,11.78
2023-02-19T00:26:36.562Z,12.39
2023-02-19T00:31:40.464Z,11.64
2023-02-19T00:36:50.082Z,14.14
2023-02-19T00:41:55.836Z,13.57
2023-02-19T00:47:01.415Z,12.11
2023-02-19T00:52:11.283Z,10.65
2023-02-19T00:57:14.692Z,9.76
2023-02-19T01:02:20.630Z,9.39
2023-02-19T01:07:26.787Z,15.81
2023-02-19T01:12:31.354Z,11.27
2023-02-19T01:17:37.086Z,8.31
2023-02-19T01:22:41.949Z,5.91
2023-02-19T01:27:45.386Z,8.38
2023-02-19T01:32:48.748Z,10.66
2023-02-19T01:37:53.534Z,9.97
2023-02-19T01:42:57.256Z,9.94
2023-02-19T01:48:05.706Z,9.86
2023-02-19T01:53:16.233Z,9.79
2023-02-19T01:58:19.989Z,9.04
2023-02-19T02:03:26.092Z,8.45
2023-02-19T02:08:50.286Z,9.50
2023-02-19T02:13:58.923Z,10.09
2023-02-19T02:19:08.596Z,10.68
2023-02-19T02:24:32.887Z,12.49
2023-02-19T02:30:00.461Z,16.74
2023-02-19T02:35:11.930Z,12.50
2023-02-19T02:40:16.285Z,12.61
2023-02-19T02:45:38.052Z,13.67
2023-02-19T02:51:00.509Z,12.82
2023-02-19T02:56:07.840Z,12.85
2023-02-19T03:01:36.168Z,12.76
2023-02-19T03:06:46.294Z,12.19
2023-02-19T03:12:11.573Z,11.41
2023-02-19T03:17:40.815Z,11.20
2023-02-19T03:22:53.504Z,10.79
2023-02-19T03:28:00.502Z,9.92
2023-02-19T03:33:08.161Z,11.19
2023-02-19T03:38:18.834Z,11.17
2023-02-19T03:43:33.915Z,20.17
2023-02-19T03:48:41.301Z,10.23
2023-02-19T03:53:58.548Z,14.85
2023-02-19T03:59:11.391Z,10.27
2023-02-19T04:04:19.110Z,8.81
2023-02-19T04:09:26.801Z,7.76
2023-02-19T04:14:42.006Z,5.33
2023-02-19T04:19:50.062Z,9.94
2023-02-19T04:24:56.527Z,6.35
2023-02-19T04:29:59.838Z,5.29
2023-02-19T04:35:05.848Z,8.13
2023-02-19T04:40:11.411Z,6.09
2023-02-19T04:45:14.771Z,6.63
2023-02-19T04:50:18.609Z,6.49
2023-02-19T04:55:25.455Z,4.93
2023-02-19T05:00:28.818Z,4.20
2023-02-19T05:05:32.233Z,5.24
2023-02-19T05:10:37.019Z,4.94
2023-02-19T05:15:40.451Z,4.19
2023-02-19T05:20:45.972Z,5.10
2023-02-19T05:25:50.710Z,5.21
2023-02-19T05:30:54.331Z,6.12
2023-02-19T05:35:57.763Z,7.29
2023-02-19T05:41:12.606Z,7.80
2023-02-19T05:46:17.409Z,12.01
2023-02-19T05:51:22.209Z,6.83
2023-02-19T05:56:31.962Z,8.58
2023-02-19T06:01:38.483Z,8.60
2023-02-19T06:06:44.633Z,10.86
2023-02-19T06:11:51.488Z,12.14
2023-02-19T06:16:54.810Z,12.16
2023-02-19T06:21:58.299Z,15.58
2023-02-19T06:27:06.193Z,12.82
2023-02-19T06:32:09.666Z,12.79
2023-02-19T06:37:16.140Z,12.71
2023-02-19T06:42:20.867Z,15.37
2023-02-19T06:47:25.474Z,13.89
2023-02-19T06:52:31.300Z,12.74
2023-02-19T06:57:38.209Z,12.25
2023-02-19T07:02:41.663Z,11.89
2023-02-19T07:07:46.789Z,12.99
2023-02-19T07:12:51.590Z,17.10
2023-02-19T07:17:57.257Z,13.37
2023-02-19T07:23:00.686Z,11.54
2023-02-19T07:28:05.946Z,11.99
2023-02-19T07:33:11.976Z,11.69
2023-02-19T07:38:16.599Z,12.11
2023-02-19T07:43:24.537Z,15.95
2023-02-19T07:48:29.247Z,14.20
2023-02-19T07:53:34.103Z,14.46
2023-02-19T07:58:39.031Z,15.08
2023-02-19T08:03:42.865Z,13.93
2023-02-19T08:08:46.360Z,13.13
2023-02-19T08:13:54.204Z,13.01
2023-02-19T08:18:57.648Z,13.87
2023-02-19T08:24:03.232Z,13.61
2023-02-19T08:29:08.412Z,14.55
2023-02-19T08:34:11.839Z,13.44
2023-02-19T08:39:21.048Z,17.44
2023-02-19T08:44:26.392Z,13.93
2023-02-19T08:49:29.848Z,12.92
2023-02-19T08:54:33.258Z,11.20
2023-02-19T08:59:38.062Z,12.02
2023-02-19T09:04:41.415Z,12.35
2023-02-19T09:09:45.022Z,12.94
2023-02-19T09:14:52.037Z,14.42
2023-02-19T09:19:55.473Z,13.06
2023-02-19T09:24:58.846Z,13.91
2023-02-19T09:30:03.721Z,13.04
2023-02-19T09:35:07.633Z,12.74
2023-02-19T09:40:11.570Z,12.57
2023-02-19T09:45:20.996Z,13.42
2023-02-19T09:50:29.892Z,13.54
2023-02-19T09:55:37.975Z,12.78
2023-02-19T10:00:42.795Z,15.38
2023-02-19T10:05:49.077Z,15.08
2023-02-19T10:10:54.449Z,13.32
2023-02-19T10:16:01.841Z,13.19
2023-02-19T10:21:06.427Z,13.17
2023-02-19T10:26:09.860Z,12.44
2023-02-19T10:31:20.838Z,12.45
2023-02-19T10:36:31.901Z,13.92
2023-02-19T10:41:44.262Z,18.20
2023-02-19T10:46:52.194Z,15.39
2023-02-19T10:52:01.637Z,19.05
2023-02-19T10:57:25.744Z,18.47
2023-02-19T11:02:33.231Z,12.03
2023-02-19T11:07:38.149Z,10.31
2023-02-19T11:12:41.613Z,9.24
2023-02-19T11:17:55.410Z,15.14
2023-02-19T11:23:02.619Z,9.60
2023-02-19T11:28:08.325Z,8.84
2023-02-19T11:33:22.257Z,9.43
2023-02-19T11:38:28.013Z,13.96
2023-02-19T11:43:50.964Z,12.65
2023-02-19T11:49:01.561Z,13.14
2023-02-19T11:54:13.138Z,15.23
2023-02-19T11:59:24.612Z,21.73
2023-02-19T12:04:44.188Z,12.04
2023-02-19T12:10:00.202Z,13.74
2023-02-19T12:15:20.174Z,10.40
2023-02-19T12:20:31.926Z,15.24
2023-02-19T12:25:50.300Z,12.36
2023-02-19T12:31:08.633Z,9.88
2023-02-19T12:36:22.143Z,9.55
2023-02-19T12:41:37.148Z,9.80
2023-02-19T12:46:47.522Z,8.80
2023-02-19T12:51:57.578Z,14.49
2023-02-19T12:57:03.964Z,8.58
2023-02-19T13:02:17.189Z,10.78
2023-02-19T13:07:26.995Z,13.38
2023-02-19T13:12:34.646Z,11.51
2023-02-19T13:17:42.626Z,12.93
2023-02-19T13:23:11.895Z,13.00
2023-02-19T13:28:26.974Z,12.26
2023-02-19T13:33:42.215Z,11.84
2023-02-19T13:38:50.113Z,12.07
2023-02-19T13:43:59.594Z,12.56
2023-02-19T13:49:21.960Z,11.69
2023-02-19T13:54:28.656Z,9.78
2023-02-19T13:59:37.071Z,11.20
2023-02-19T14:04:47.429Z,14.42
2023-02-19T14:09:55.294Z,11.55
2023-02-19T14:15:15.899Z,9.83
2023-02-19T14:20:40.339Z,9.81
2023-02-19T14:25:50.378Z,11.28
2023-02-19T14:30:55.833Z,11.51
2023-02-19T14:36:07.429Z,12.77
2023-02-19T14:41:14.918Z,13.91
2023-02-19T14:46:25.372Z,11.15
2023-02-19T14:51:33.591Z,11.53
2023-02-19T14:56:38.522Z,11.43
2023-02-19T15:01:42.003Z,10.20
2023-02-19T15:06:47.829Z,9.11
2023-02-19T15:11:54.323Z,10.40
2023-02-19T15:17:00.573Z,13.62
2023-02-19T15:22:05.320Z,10.76
2023-02-19T15:27:18.753Z,10.17
2023-02-19T15:32:24.045Z,9.96
2023-02-19T15:37:29.920Z,9.89
2023-02-19T15:42:37.237Z,10.27
2023-02-19T15:47:46.920Z,8.95
2023-02-19T15:52:59.921Z,9.71
2023-02-19T15:58:13.443Z,9.71
2023-02-19T16:03:19.172Z,10.23
2023-02-19T16:08:30.933Z,10.03
2023-02-19T16:13:38.166Z,11.46
2023-02-19T16:18:45.819Z,11.05
2023-02-19T16:23:56.981Z,13.60
2023-02-19T16:29:01.846Z,17.23
2023-02-19T16:34:17.632Z,10.27
2023-02-19T16:39:22.432Z,13.03
2023-02-19T16:44:36.644Z,9.56
2023-02-19T16:49:42.556Z,9.89
2023-02-19T16:54:46.083Z,10.10
2023-02-19T16:59:51.013Z,11.66
2023-02-19T17:04:55.897Z,10.92
2023-02-19T17:09:59.496Z,10.62
2023-02-19T17:15:04.406Z,9.99
2023-02-19T17:20:20.442Z,10.52
2023-02-19T17:25:26.642Z,11.84
2023-02-19T17:30:33.202Z,15.56
2023-02-19T17:35:36.753Z,19.27
2023-02-19T17:40:40.347Z,11.13
2023-02-19T17:45:45.290Z,9.93
2023-02-19T17:50:52.369Z,9.63
2023-02-19T17:55:55.837Z,10.17
2023-02-19T18:01:00.713Z,7.90
2023-02-19T18:06:07.589Z,7.10
2023-02-19T18:11:11.298Z,6.74
2023-02-19T18:16:17.294Z,11.30
2023-02-19T18:21:20.828Z,7.96
2023-02-19T18:26:24.772Z,7.57
2023-02-19T18:31:34.072Z,7.65
2023-02-19T18:36:37.644Z,7.56
2023-02-19T18:41:41.313Z,8.27
2023-02-19T18:46:49.261Z,8.47
2023-02-19T18:51:52.834Z,9.03
2023-02-19T18:56:56.458Z,12.63
2023-02-19T19:02:01.382Z,12.57
2023-02-19T19:07:05.978Z,10.95
2023-02-19T19:12:11.997Z,12.10
2023-02-19T19:17:16.766Z,12.62
2023-02-19T19:22:22.862Z,14.40
2023-02-19T19:27:26.411Z,12.81
2023-02-19T19:32:31.722Z,16.02
2023-02-19T19:37:37.610Z,12.52
2023-02-19T19:42:42.520Z,12.70
2023-02-19T19:47:49.864Z,11.66
2023-02-19T19:52:53.472Z,12.67
2023-02-19T19:58:00.652Z,17.39
2023-02-19T20:03:10.626Z,13.45
2023-02-19T20:08:14.588Z,11.89
2023-02-19T20:13:18.904Z,11.47
2023-02-19T20:18:26.704Z,9.98
2023-02-19T20:23:30.391Z,10.04
2023-02-19T20:28:33.996Z,10.70
2023-02-19T20:33:38.872Z,10.02
2023-02-19T20:38:44.906Z,10.31
2023-02-19T20:43:53.102Z,10.03
2023-02-19T20:49:00.006Z,10.30
2023-02-19T20:54:03.519Z,11.30
2023-02-19T20:59:06.978Z,9.98
2023-02-19T21:04:12.306Z,11.15
2023-02-19T21:09:15.900Z,13.10
2023-02-19T21:14:21.687Z,11.14
2023-02-19T21:19:26.550Z,12.77
2023-02-19T21:24:33.179Z,12.80
2023-02-19T21:29:40.040Z,10.81
2023-02-19T21:34:44.878Z,15.23
2023-02-19T21:39:51.283Z,10.34
2023-02-19T21:44:54.941Z,10.01
2023-02-19T21:49:59.772Z,9.63
2023-02-19T21:55:03.252Z,8.93
2023-02-19T22:00:10.004Z,9.45
2023-02-19T22:05:17.562Z,10.50
2023-02-19T22:10:21.851Z,11.27
2023-02-19T22:15:27.774Z,11.18
2023-02-19T22:20:32.644Z,11.90
2023-02-19T22:25:36.172Z,10.94
2023-02-19T22:30:40.997Z,10.59
2023-02-19T22:35:45.912Z,11.81
2023-02-19T22:40:49.478Z,11.20
2023-02-19T22:45:53.483Z,10.97
2023-02-19T22:51:02.490Z,11.75
2023-02-19T22:56:06.164Z,11.42
2023-02-19T23:01:10.106Z,11.97
2023-02-19T23:06:18.671Z,13.92
2023-02-19T23:11:23.443Z,13.15
2023-02-19T23:16:27.125Z,12.64
2023-02-19T23:21:34.758Z,11.22
2023-02-19T23:26:43.491Z,10.82
2023-02-19T23:31:47.211Z,11.96
2023-02-19T23:36:52.387Z,12.66
2023-02-19T23:41:57.595Z,12.69
2023-02-19T23:47:03.260Z,11.60
2023-02-19T23:52:10.254Z,14.35
2023-02-19T23:57:16.690Z,12.08
